sensor_id;sensor_type;location;lat;lon;timestamp;P1;durP1;ratioP1;P2;durP2;ratioP2
7961;SDS011;4026;43.652;24.906;2022-09-29T00:00:46;0.50;;;0.50;;
7961;SDS011;4026;43.652;24.906;2022-09-29T00:03:14;0.70;;;0.70;;
7961;SDS011;4026;43.652;24.906;2022-09-29T00:05:45;0.40;;;0.40;;
7961;SDS011;4026;43.652;24.906;2022-09-29T00:08:13;0.70;;;0.67;;
7961;SDS011;4026;43.652;24.906;2022-09-29T00:10:41;1.47;;;1.00;;
7961;SDS011;4026;43.652;24.906;2022-09-29T00:13:08;0.50;;;0.50;;
7961;SDS011;4026;43.652;24.906;2022-09-29T00:15:35;0.43;;;0.43;;
7961;SDS011;4026;43.652;24.906;2022-09-29T00:18:03;0.90;;;0.80;;
7961;SDS011;4026;43.652;24.906;2022-09-29T00:20:31;0.50;;;0.50;;
7961;SDS011;4026;43.652;24.906;2022-09-29T00:22:58;0.60;;;0.60;;
7961;SDS011;4026;43.652;24.906;2022-09-29T00:25:25;0.33;;;0.33;;
7961;SDS011;4026;43.652;24.906;2022-09-29T00:27:51;0.50;;;0.50;;
7961;SDS011;4026;43.652;24.906;2022-09-29T00:30:18;1.53;;;0.90;;
7961;SDS011;4026;43.652;24.906;2022-09-29T00:32:45;1.20;;;0.77;;
7961;SDS011;4026;43.652;24.906;2022-09-29T00:35:13;0.60;;;0.57;;
7961;SDS011;4026;43.652;24.906;2022-09-29T00:37:42;1.10;;;0.80;;
7961;SDS011;4026;43.652;24.906;2022-09-29T00:40:09;0.40;;;0.40;;
7961;SDS011;4026;43.652;24.906;2022-09-29T00:42:36;1.03;;;0.87;;
7961;SDS011;4026;43.652;24.906;2022-09-29T00:45:05;0.57;;;0.57;;
7961;SDS011;4026;43.652;24.906;2022-09-29T00:47:41;0.43;;;0.43;;
7961;SDS011;4026;43.652;24.906;2022-09-29T00:50:15;1.50;;;0.53;;
7961;SDS011;4026;43.652;24.906;2022-09-29T00:52:45;1.20;;;0.70;;
7961;SDS011;4026;43.652;24.906;2022-09-29T00:55:18;2.23;;;0.60;;
7961;SDS011;4026;43.652;24.906;2022-09-29T00:57:50;0.77;;;0.77;;
7961;SDS011;4026;43.652;24.906;2022-09-29T01:00:21;0.60;;;0.47;;
7961;SDS011;4026;43.652;24.906;2022-09-29T01:02:49;1.00;;;0.90;;
7961;SDS011;4026;43.652;24.906;2022-09-29T01:05:20;0.50;;;0.50;;
7961;SDS011;4026;43.652;24.906;2022-09-29T01:07:51;0.60;;;0.57;;
7961;SDS011;4026;43.652;24.906;2022-09-29T01:10:18;0.70;;;0.70;;
7961;SDS011;4026;43.652;24.906;2022-09-29T01:12:46;0.57;;;0.57;;
7961;SDS011;4026;43.652;24.906;2022-09-29T01:15:15;0.50;;;0.50;;
7961;SDS011;4026;43.652;24.906;2022-09-29T01:17:44;0.50;;;0.50;;
7961;SDS011;4026;43.652;24.906;2022-09-29T01:20:13;0.40;;;0.40;;
7961;SDS011;4026;43.652;24.906;2022-09-29T01:32:08;1.03;;;0.80;;
7961;SDS011;4026;43.652;24.906;2022-09-29T01:34:42;0.70;;;0.70;;
7961;SDS011;4026;43.652;24.906;2022-09-29T01:37:27;0.80;;;0.50;;
7961;SDS011;4026;43.652;24.906;2022-09-29T01:40:05;0.53;;;0.53;;
7961;SDS011;4026;43.652;24.906;2022-09-29T01:42:40;1.33;;;0.60;;
7961;SDS011;4026;43.652;24.906;2022-09-29T01:45:14;0.60;;;0.60;;
7961;SDS011;4026;43.652;24.906;2022-09-29T01:47:50;0.60;;;0.60;;
7961;SDS011;4026;43.652;24.906;2022-09-29T01:50:22;0.80;;;0.80;;
7961;SDS011;4026;43.652;24.906;2022-09-29T01:52:53;0.50;;;0.50;;
7961;SDS011;4026;43.652;24.906;2022-09-29T01:55:26;0.80;;;0.80;;
7961;SDS011;4026;43.652;24.906;2022-09-29T01:57:56;0.70;;;0.70;;
7961;SDS011;4026;43.652;24.906;2022-09-29T02:00:28;0.57;;;0.57;;
7961;SDS011;4026;43.652;24.906;2022-09-29T02:03:04;0.87;;;0.77;;
7961;SDS011;4026;43.652;24.906;2022-09-29T02:05:35;0.70;;;0.70;;
7961;SDS011;4026;43.652;24.906;2022-09-29T02:08:06;1.00;;;0.90;;
7961;SDS011;4026;43.652;24.906;2022-09-29T02:10:39;1.17;;;0.63;;
7961;SDS011;4026;43.652;24.906;2022-09-29T02:13:13;0.50;;;0.50;;
7961;SDS011;4026;43.652;24.906;2022-09-29T02:15:44;0.50;;;0.50;;
7961;SDS011;4026;43.652;24.906;2022-09-29T02:18:15;1.37;;;0.80;;
7961;SDS011;4026;43.652;24.906;2022-09-29T02:20:47;0.80;;;0.80;;
7961;SDS011;4026;43.652;24.906;2022-09-29T02:23:14;1.20;;;0.80;;
7961;SDS011;4026;43.652;24.906;2022-09-29T02:25:42;1.20;;;1.00;;
7961;SDS011;4026;43.652;24.906;2022-09-29T02:28:12;0.70;;;0.70;;
7961;SDS011;4026;43.652;24.906;2022-09-29T02:30:39;0.83;;;0.77;;
7961;SDS011;4026;43.652;24.906;2022-09-29T02:33:16;0.70;;;0.60;;
7961;SDS011;4026;43.652;24.906;2022-09-29T02:35:49;1.07;;;0.80;;
7961;SDS011;4026;43.652;24.906;2022-09-29T02:38:23;0.73;;;0.73;;
7961;SDS011;4026;43.652;24.906;2022-09-29T02:40:57;5.27;;;0.93;;
7961;SDS011;4026;43.652;24.906;2022-09-29T02:43:37;1.23;;;1.03;;
7961;SDS011;4026;43.652;24.906;2022-09-29T02:46:16;1.07;;;0.67;;
7961;SDS011;4026;43.652;24.906;2022-09-29T02:48:58;0.57;;;0.57;;
7961;SDS011;4026;43.652;24.906;2022-09-29T02:51:40;2.30;;;1.03;;
7961;SDS011;4026;43.652;24.906;2022-09-29T02:54:16;0.80;;;0.67;;
7961;SDS011;4026;43.652;24.906;2022-09-29T02:56:53;0.80;;;0.80;;
7961;SDS011;4026;43.652;24.906;2022-09-29T02:59:30;0.53;;;0.53;;
7961;SDS011;4026;43.652;24.906;2022-09-29T03:02:05;0.63;;;0.57;;
7961;SDS011;4026;43.652;24.906;2022-09-29T03:04:33;0.40;;;0.40;;
7961;SDS011;4026;43.652;24.906;2022-09-29T03:07:00;0.50;;;0.50;;
7961;SDS011;4026;43.652;24.906;2022-09-29T03:09:27;0.30;;;0.30;;
7961;SDS011;4026;43.652;24.906;2022-09-29T03:11:54;0.60;;;0.53;;
7961;SDS011;4026;43.652;24.906;2022-09-29T03:14:20;0.60;;;0.60;;
7961;SDS011;4026;43.652;24.906;2022-09-29T03:16:47;0.70;;;0.70;;
7961;SDS011;4026;43.652;24.906;2022-09-29T03:19:14;0.93;;;0.90;;
7961;SDS011;4026;43.652;24.906;2022-09-29T03:21:42;0.60;;;0.60;;
7961;SDS011;4026;43.652;24.906;2022-09-29T03:24:09;0.63;;;0.57;;
7961;SDS011;4026;43.652;24.906;2022-09-29T03:26:36;0.90;;;0.73;;
7961;SDS011;4026;43.652;24.906;2022-09-29T03:29:03;1.20;;;1.10;;
7961;SDS011;4026;43.652;24.906;2022-09-29T03:31:30;1.07;;;0.83;;
7961;SDS011;4026;43.652;24.906;2022-09-29T03:33:57;0.70;;;0.70;;
7961;SDS011;4026;43.652;24.906;2022-09-29T03:36:24;0.40;;;0.40;;
7961;SDS011;4026;43.652;24.906;2022-09-29T03:38:52;0.70;;;0.67;;
7961;SDS011;4026;43.652;24.906;2022-09-29T03:41:19;0.40;;;0.40;;
7961;SDS011;4026;43.652;24.906;2022-09-29T03:43:46;1.87;;;0.80;;
7961;SDS011;4026;43.652;24.906;2022-09-29T03:46:13;0.70;;;0.70;;
7961;SDS011;4026;43.652;24.906;2022-09-29T03:48:40;1.77;;;0.70;;
7961;SDS011;4026;43.652;24.906;2022-09-29T03:51:07;0.53;;;0.53;;
7961;SDS011;4026;43.652;24.906;2022-09-29T03:53:34;1.17;;;0.80;;
7961;SDS011;4026;43.652;24.906;2022-09-29T03:56:03;0.50;;;0.50;;
7961;SDS011;4026;43.652;24.906;2022-09-29T03:58:30;0.60;;;0.60;;
7961;SDS011;4026;43.652;24.906;2022-09-29T04:00:57;1.27;;;1.00;;
7961;SDS011;4026;43.652;24.906;2022-09-29T04:03:24;0.30;;;0.30;;
7961;SDS011;4026;43.652;24.906;2022-09-29T04:05:51;0.77;;;0.63;;
7961;SDS011;4026;43.652;24.906;2022-09-29T04:08:18;0.77;;;0.60;;
7961;SDS011;4026;43.652;24.906;2022-09-29T04:10:45;0.80;;;0.60;;
7961;SDS011;4026;43.652;24.906;2022-09-29T04:13:14;0.60;;;0.60;;
7961;SDS011;4026;43.652;24.906;2022-09-29T04:15:41;0.80;;;0.60;;
7961;SDS011;4026;43.652;24.906;2022-09-29T04:18:08;0.63;;;0.63;;
7961;SDS011;4026;43.652;24.906;2022-09-29T04:20:36;1.40;;;0.90;;
7961;SDS011;4026;43.652;24.906;2022-09-29T04:23:03;0.77;;;0.70;;
7961;SDS011;4026;43.652;24.906;2022-09-29T04:25:30;1.23;;;0.60;;
7961;SDS011;4026;43.652;24.906;2022-09-29T04:27:57;0.63;;;0.63;;
7961;SDS011;4026;43.652;24.906;2022-09-29T04:30:25;1.43;;;0.60;;
7961;SDS011;4026;43.652;24.906;2022-09-29T04:32:52;0.73;;;0.60;;
7961;SDS011;4026;43.652;24.906;2022-09-29T04:35:19;0.50;;;0.50;;
7961;SDS011;4026;43.652;24.906;2022-09-29T04:37:46;0.60;;;0.60;;
7961;SDS011;4026;43.652;24.906;2022-09-29T04:40:12;1.47;;;1.20;;
7961;SDS011;4026;43.652;24.906;2022-09-29T04:42:39;0.60;;;0.60;;
7961;SDS011;4026;43.652;24.906;2022-09-29T04:45:06;0.80;;;0.80;;
7961;SDS011;4026;43.652;24.906;2022-09-29T04:47:35;0.50;;;0.50;;
7961;SDS011;4026;43.652;24.906;2022-09-29T04:50:02;1.03;;;0.83;;
7961;SDS011;4026;43.652;24.906;2022-09-29T04:52:29;1.53;;;0.60;;
7961;SDS011;4026;43.652;24.906;2022-09-29T04:54:56;0.83;;;0.83;;
7961;SDS011;4026;43.652;24.906;2022-09-29T04:57:22;1.53;;;0.77;;
7961;SDS011;4026;43.652;24.906;2022-09-29T04:59:49;0.70;;;0.70;;
7961;SDS011;4026;43.652;24.906;2022-09-29T05:02:16;0.50;;;0.50;;
7961;SDS011;4026;43.652;24.906;2022-09-29T05:04:45;0.97;;;0.70;;
7961;SDS011;4026;43.652;24.906;2022-09-29T05:07:12;0.70;;;0.70;;
7961;SDS011;4026;43.652;24.906;2022-09-29T05:09:40;0.50;;;0.50;;
7961;SDS011;4026;43.652;24.906;2022-09-29T05:12:06;1.80;;;1.07;;
7961;SDS011;4026;43.652;24.906;2022-09-29T05:14:33;0.63;;;0.63;;
7961;SDS011;4026;43.652;24.906;2022-09-29T05:17:00;2.23;;;0.77;;
7961;SDS011;4026;43.652;24.906;2022-09-29T05:19:27;0.93;;;0.80;;
7961;SDS011;4026;43.652;24.906;2022-09-29T05:21:55;0.73;;;0.63;;
7961;SDS011;4026;43.652;24.906;2022-09-29T05:24:22;0.73;;;0.73;;
7961;SDS011;4026;43.652;24.906;2022-09-29T05:26:49;1.00;;;0.90;;
7961;SDS011;4026;43.652;24.906;2022-09-29T05:29:16;1.10;;;1.00;;
7961;SDS011;4026;43.652;24.906;2022-09-29T05:31:43;0.70;;;0.70;;
7961;SDS011;4026;43.652;24.906;2022-09-29T05:34:10;2.20;;;1.07;;
7961;SDS011;4026;43.652;24.906;2022-09-29T05:36:37;0.67;;;0.67;;
7961;SDS011;4026;43.652;24.906;2022-09-29T05:39:05;0.70;;;0.70;;
7961;SDS011;4026;43.652;24.906;2022-09-29T05:41:32;0.70;;;0.70;;
7961;SDS011;4026;43.652;24.906;2022-09-29T05:43:59;0.50;;;0.50;;
7961;SDS011;4026;43.652;24.906;2022-09-29T05:46:26;0.93;;;0.67;;
7961;SDS011;4026;43.652;24.906;2022-09-29T05:48:53;0.67;;;0.67;;
7961;SDS011;4026;43.652;24.906;2022-09-29T05:51:23;0.50;;;0.50;;
7961;SDS011;4026;43.652;24.906;2022-09-29T05:53:51;0.80;;;0.77;;
7961;SDS011;4026;43.652;24.906;2022-09-29T05:56:21;0.77;;;0.53;;
7961;SDS011;4026;43.652;24.906;2022-09-29T05:58:48;0.50;;;0.50;;
7961;SDS011;4026;43.652;24.906;2022-09-29T06:01:16;0.50;;;0.50;;
7961;SDS011;4026;43.652;24.906;2022-09-29T06:03:44;1.20;;;1.10;;
7961;SDS011;4026;43.652;24.906;2022-09-29T06:06:12;1.40;;;1.20;;
7961;SDS011;4026;43.652;24.906;2022-09-29T06:08:40;0.67;;;0.63;;
7961;SDS011;4026;43.652;24.906;2022-09-29T06:11:08;1.73;;;0.70;;
7961;SDS011;4026;43.652;24.906;2022-09-29T06:13:38;0.88;;;0.85;;
7961;SDS011;4026;43.652;24.906;2022-09-29T06:16:06;0.80;;;0.80;;
7961;SDS011;4026;43.652;24.906;2022-09-29T06:18:33;1.10;;;1.00;;
7961;SDS011;4026;43.652;24.906;2022-09-29T06:21:00;1.35;;;0.75;;
7961;SDS011;4026;43.652;24.906;2022-09-29T06:23:28;0.95;;;0.85;;
7961;SDS011;4026;43.652;24.906;2022-09-29T06:25:55;0.73;;;0.73;;
7961;SDS011;4026;43.652;24.906;2022-09-29T06:28:22;1.00;;;0.80;;
7961;SDS011;4026;43.652;24.906;2022-09-29T06:30:51;0.95;;;0.80;;
7961;SDS011;4026;43.652;24.906;2022-09-29T06:33:17;1.00;;;0.90;;
7961;SDS011;4026;43.652;24.906;2022-09-29T06:35:45;0.68;;;0.60;;
7961;SDS011;4026;43.652;24.906;2022-09-29T06:38:30;0.80;;;0.80;;
7961;SDS011;4026;43.652;24.906;2022-09-29T06:40:57;0.80;;;0.50;;
7961;SDS011;4026;43.652;24.906;2022-09-29T06:43:25;0.85;;;0.85;;
7961;SDS011;4026;43.652;24.906;2022-09-29T06:45:53;1.02;;;0.80;;
7961;SDS011;4026;43.652;24.906;2022-09-29T06:48:20;0.65;;;0.65;;
7961;SDS011;4026;43.652;24.906;2022-09-29T06:50:47;0.47;;;0.47;;
7961;SDS011;4026;43.652;24.906;2022-09-29T06:53:14;0.70;;;0.70;;
7961;SDS011;4026;43.652;24.906;2022-09-29T06:55:41;0.85;;;0.70;;
7961;SDS011;4026;43.652;24.906;2022-09-29T06:58:07;1.92;;;0.70;;
7961;SDS011;4026;43.652;24.906;2022-09-29T07:00:36;0.70;;;0.70;;
7961;SDS011;4026;43.652;24.906;2022-09-29T07:03:04;0.70;;;0.70;;
7961;SDS011;4026;43.652;24.906;2022-09-29T07:05:31;0.80;;;0.75;;
7961;SDS011;4026;43.652;24.906;2022-09-29T07:07:59;0.90;;;0.90;;
7961;SDS011;4026;43.652;24.906;2022-09-29T07:10:27;0.85;;;0.85;;
7961;SDS011;4026;43.652;24.906;2022-09-29T07:12:54;0.80;;;0.80;;
7961;SDS011;4026;43.652;24.906;2022-09-29T07:15:21;0.70;;;0.70;;
7961;SDS011;4026;43.652;24.906;2022-09-29T07:17:55;1.00;;;0.82;;
7961;SDS011;4026;43.652;24.906;2022-09-29T07:20:23;1.08;;;0.98;;
7961;SDS011;4026;43.652;24.906;2022-09-29T07:22:51;0.70;;;0.70;;
7961;SDS011;4026;43.652;24.906;2022-09-29T07:25:18;0.82;;;0.80;;
7961;SDS011;4026;43.652;24.906;2022-09-29T07:27:45;0.73;;;0.73;;
7961;SDS011;4026;43.652;24.906;2022-09-29T07:30:13;1.10;;;1.00;;
7961;SDS011;4026;43.652;24.906;2022-09-29T07:32:40;1.15;;;0.90;;
7961;SDS011;4026;43.652;24.906;2022-09-29T07:35:07;0.70;;;0.70;;
7961;SDS011;4026;43.652;24.906;2022-09-29T07:37:36;0.98;;;0.73;;
7961;SDS011;4026;43.652;24.906;2022-09-29T07:40:03;0.70;;;0.68;;
7961;SDS011;4026;43.652;24.906;2022-09-29T07:42:31;2.15;;;0.93;;
7961;SDS011;4026;43.652;24.906;2022-09-29T07:44:57;1.02;;;0.85;;
7961;SDS011;4026;43.652;24.906;2022-09-29T07:47:24;0.80;;;0.80;;
7961;SDS011;4026;43.652;24.906;2022-09-29T07:49:51;0.95;;;0.82;;
7961;SDS011;4026;43.652;24.906;2022-09-29T07:52:18;0.80;;;0.80;;
7961;SDS011;4026;43.652;24.906;2022-09-29T07:54:46;1.08;;;0.70;;
7961;SDS011;4026;43.652;24.906;2022-09-29T07:57:13;0.70;;;0.70;;
7961;SDS011;4026;43.652;24.906;2022-09-29T07:59:40;1.00;;;0.82;;
7961;SDS011;4026;43.652;24.906;2022-09-29T08:02:06;0.73;;;0.73;;
7961;SDS011;4026;43.652;24.906;2022-09-29T08:04:34;0.70;;;0.70;;
7961;SDS011;4026;43.652;24.906;2022-09-29T08:07:01;0.90;;;0.77;;
7961;SDS011;4026;43.652;24.906;2022-09-29T08:09:28;0.80;;;0.80;;
7961;SDS011;4026;43.652;24.906;2022-09-29T08:11:56;0.70;;;0.70;;
7961;SDS011;4026;43.652;24.906;2022-09-29T08:14:23;0.90;;;0.85;;
7961;SDS011;4026;43.652;24.906;2022-09-29T08:16:50;0.80;;;0.80;;
7961;SDS011;4026;43.652;24.906;2022-09-29T08:19:16;0.70;;;0.70;;
7961;SDS011;4026;43.652;24.906;2022-09-29T08:21:43;1.15;;;1.00;;
7961;SDS011;4026;43.652;24.906;2022-09-29T08:24:14;0.80;;;0.80;;
7961;SDS011;4026;43.652;24.906;2022-09-29T08:26:43;1.55;;;0.90;;
7961;SDS011;4026;43.652;24.906;2022-09-29T08:29:12;1.48;;;1.02;;
7961;SDS011;4026;43.652;24.906;2022-09-29T08:31:39;0.80;;;0.80;;
7961;SDS011;4026;43.652;24.906;2022-09-29T08:34:07;1.70;;;0.98;;
7961;SDS011;4026;43.652;24.906;2022-09-29T08:36:34;3.17;;;2.35;;
7961;SDS011;4026;43.652;24.906;2022-09-29T08:39:01;3.30;;;1.90;;
7961;SDS011;4026;43.652;24.906;2022-09-29T08:41:31;4.90;;;3.17;;
7961;SDS011;4026;43.652;24.906;2022-09-29T08:44:06;2.70;;;1.88;;
7961;SDS011;4026;43.652;24.906;2022-09-29T08:46:41;1.65;;;1.55;;
7961;SDS011;4026;43.652;24.906;2022-09-29T08:49:14;1.90;;;1.00;;
7961;SDS011;4026;43.652;24.906;2022-09-29T08:51:46;2.03;;;1.50;;
7961;SDS011;4026;43.652;24.906;2022-09-29T08:54:19;3.58;;;1.42;;
7961;SDS011;4026;43.652;24.906;2022-09-29T08:56:51;1.80;;;1.30;;
7961;SDS011;4026;43.652;24.906;2022-09-29T08:59:18;2.22;;;1.80;;
7961;SDS011;4026;43.652;24.906;2022-09-29T09:01:50;2.83;;;2.13;;
7961;SDS011;4026;43.652;24.906;2022-09-29T09:04:31;4.00;;;1.67;;
7961;SDS011;4026;43.652;24.906;2022-09-29T09:07:16;1.67;;;1.40;;
7961;SDS011;4026;43.652;24.906;2022-09-29T09:09:54;1.70;;;1.25;;
7961;SDS011;4026;43.652;24.906;2022-09-29T09:12:35;1.50;;;1.40;;
7961;SDS011;4026;43.652;24.906;2022-09-29T09:15:19;2.70;;;1.73;;
7961;SDS011;4026;43.652;24.906;2022-09-29T09:18:06;1.83;;;1.40;;
7961;SDS011;4026;43.652;24.906;2022-09-29T09:20:47;4.05;;;2.67;;
7961;SDS011;4026;43.652;24.906;2022-09-29T09:23:21;1.23;;;1.10;;
7961;SDS011;4026;43.652;24.906;2022-09-29T09:25:58;1.70;;;1.10;;
7961;SDS011;4026;43.652;24.906;2022-09-29T09:28:28;1.50;;;1.08;;
7961;SDS011;4026;43.652;24.906;2022-09-29T09:30:59;2.92;;;1.15;;
7961;SDS011;4026;43.652;24.906;2022-09-29T09:33:33;2.03;;;1.35;;
7961;SDS011;4026;43.652;24.906;2022-09-29T09:36:06;1.00;;;0.90;;
7961;SDS011;4026;43.652;24.906;2022-09-29T09:38:40;1.52;;;1.38;;
7961;SDS011;4026;43.652;24.906;2022-09-29T09:41:12;1.60;;;1.20;;
7961;SDS011;4026;43.652;24.906;2022-09-29T09:43:43;4.38;;;1.80;;
7961;SDS011;4026;43.652;24.906;2022-09-29T09:46:15;2.75;;;1.55;;
7961;SDS011;4026;43.652;24.906;2022-09-29T09:48:48;1.40;;;1.20;;
7961;SDS011;4026;43.652;24.906;2022-09-29T09:51:36;1.67;;;1.20;;
7961;SDS011;4026;43.652;24.906;2022-09-29T09:54:10;1.58;;;1.10;;
7961;SDS011;4026;43.652;24.906;2022-09-29T09:56:46;1.85;;;1.27;;
7961;SDS011;4026;43.652;24.906;2022-09-29T09:59:28;1.35;;;1.00;;
7961;SDS011;4026;43.652;24.906;2022-09-29T10:02:05;1.08;;;0.98;;
7961;SDS011;4026;43.652;24.906;2022-09-29T10:04:43;1.98;;;1.23;;
7961;SDS011;4026;43.652;24.906;2022-09-29T10:07:10;1.15;;;0.90;;
7961;SDS011;4026;43.652;24.906;2022-09-29T10:09:36;1.20;;;1.10;;
7961;SDS011;4026;43.652;24.906;2022-09-29T10:12:04;1.08;;;0.90;;
7961;SDS011;4026;43.652;24.906;2022-09-29T10:14:30;1.35;;;1.00;;
7961;SDS011;4026;43.652;24.906;2022-09-29T10:17:00;1.80;;;1.27;;
7961;SDS011;4026;43.652;24.906;2022-09-29T10:22:21;1.10;;;1.00;;
7961;SDS011;4026;43.652;24.906;2022-09-29T10:24:50;1.17;;;1.08;;
7961;SDS011;4026;43.652;24.906;2022-09-29T10:27:21;2.05;;;0.90;;
7961;SDS011;4026;43.652;24.906;2022-09-29T10:29:50;1.00;;;0.90;;
7961;SDS011;4026;43.652;24.906;2022-09-29T10:32:24;2.20;;;1.00;;
7961;SDS011;4026;43.652;24.906;2022-09-29T10:35:04;1.00;;;0.90;;
7961;SDS011;4026;43.652;24.906;2022-09-29T10:37:36;0.88;;;0.88;;
7961;SDS011;4026;43.652;24.906;2022-09-29T10:40:12;1.20;;;1.10;;
7961;SDS011;4026;43.652;24.906;2022-09-29T10:42:45;1.00;;;0.90;;
7961;SDS011;4026;43.652;24.906;2022-09-29T10:45:14;1.73;;;1.27;;
7961;SDS011;4026;43.652;24.906;2022-09-29T10:47:44;2.55;;;1.00;;
7961;SDS011;4026;43.652;24.906;2022-09-29T10:50:14;1.15;;;1.00;;
7961;SDS011;4026;43.652;24.906;2022-09-29T10:52:43;0.95;;;0.80;;
7961;SDS011;4026;43.652;24.906;2022-09-29T10:55:14;1.83;;;1.00;;
7961;SDS011;4026;43.652;24.906;2022-09-29T10:57:43;0.68;;;0.68;;
7961;SDS011;4026;43.652;24.906;2022-09-29T11:00:23;0.65;;;0.65;;
7961;SDS011;4026;43.652;24.906;2022-09-29T11:02:51;1.00;;;0.93;;
7961;SDS011;4026;43.652;24.906;2022-09-29T11:05:25;1.10;;;1.00;;
7961;SDS011;4026;43.652;24.906;2022-09-29T11:07:52;1.50;;;1.00;;
7961;SDS011;4026;43.652;24.906;2022-09-29T11:10:29;1.00;;;0.90;;
7961;SDS011;4026;43.652;24.906;2022-09-29T11:12:57;0.70;;;0.70;;
7961;SDS011;4026;43.652;24.906;2022-09-29T11:15:26;1.30;;;1.00;;
7961;SDS011;4026;43.652;24.906;2022-09-29T11:17:54;0.95;;;0.90;;
7961;SDS011;4026;43.652;24.906;2022-09-29T11:20:24;1.40;;;0.90;;
7961;SDS011;4026;43.652;24.906;2022-09-29T11:23:03;0.80;;;0.80;;
7961;SDS011;4026;43.652;24.906;2022-09-29T11:25:56;0.80;;;0.80;;
7961;SDS011;4026;43.652;24.906;2022-09-29T11:28:46;1.80;;;1.17;;
7961;SDS011;4026;43.652;24.906;2022-09-29T11:31:31;0.88;;;0.88;;
7961;SDS011;4026;43.652;24.906;2022-09-29T11:37:12;0.95;;;0.90;;
7961;SDS011;4026;43.652;24.906;2022-09-29T11:39:49;0.70;;;0.70;;
7961;SDS011;4026;43.652;24.906;2022-09-29T11:42:30;1.10;;;1.00;;
7961;SDS011;4026;43.652;24.906;2022-09-29T11:45:10;1.17;;;0.93;;
7961;SDS011;4026;43.652;24.906;2022-09-29T11:47:46;0.65;;;0.65;;
7961;SDS011;4026;43.652;24.906;2022-09-29T11:50:35;0.98;;;0.98;;
7961;SDS011;4026;43.652;24.906;2022-09-29T11:53:17;1.02;;;0.93;;
7961;SDS011;4026;43.652;24.906;2022-09-29T11:55:56;1.33;;;1.23;;
7961;SDS011;4026;43.652;24.906;2022-09-29T11:58:49;1.02;;;0.90;;
7961;SDS011;4026;43.652;24.906;2022-09-29T12:01:33;0.80;;;0.80;;
7961;SDS011;4026;43.652;24.906;2022-09-29T12:04:16;0.95;;;0.93;;
7961;SDS011;4026;43.652;24.906;2022-09-29T12:06:55;0.95;;;0.93;;
7961;SDS011;4026;43.652;24.906;2022-09-29T12:09:34;1.42;;;0.90;;
7961;SDS011;4026;43.652;24.906;2022-09-29T12:12:21;1.10;;;1.00;;
7961;SDS011;4026;43.652;24.906;2022-09-29T12:14:56;1.25;;;1.00;;
7961;SDS011;4026;43.652;24.906;2022-09-29T12:17:40;1.17;;;0.95;;
7961;SDS011;4026;43.652;24.906;2022-09-29T12:20:13;0.70;;;0.70;;
7961;SDS011;4026;43.652;24.906;2022-09-29T12:22:45;0.95;;;0.90;;
7961;SDS011;4026;43.652;24.906;2022-09-29T12:25:16;0.65;;;0.65;;
7961;SDS011;4026;43.652;24.906;2022-09-29T12:27:46;0.60;;;0.60;;
7961;SDS011;4026;43.652;24.906;2022-09-29T12:30:17;0.70;;;0.70;;
7961;SDS011;4026;43.652;24.906;2022-09-29T12:32:48;1.38;;;0.75;;
7961;SDS011;4026;43.652;24.906;2022-09-29T12:35:20;0.70;;;0.70;;
7961;SDS011;4026;43.652;24.906;2022-09-29T12:37:55;1.08;;;0.80;;
7961;SDS011;4026;43.652;24.906;2022-09-29T12:40:31;1.13;;;0.73;;
7961;SDS011;4026;43.652;24.906;2022-09-29T12:43:04;1.02;;;0.90;;
7961;SDS011;4026;43.652;24.906;2022-09-29T12:45:40;0.85;;;0.85;;
7961;SDS011;4026;43.652;24.906;2022-09-29T12:48:18;0.80;;;0.80;;
7961;SDS011;4026;43.652;24.906;2022-09-29T12:50:53;0.88;;;0.80;;
7961;SDS011;4026;43.652;24.906;2022-09-29T12:53:28;0.57;;;0.50;;
7961;SDS011;4026;43.652;24.906;2022-09-29T12:56:02;1.48;;;1.08;;
7961;SDS011;4026;43.652;24.906;2022-09-29T12:58:34;1.45;;;0.90;;
7961;SDS011;4026;43.652;24.906;2022-09-29T13:01:15;2.03;;;0.70;;
7961;SDS011;4026;43.652;24.906;2022-09-29T13:10:20;1.10;;;0.95;;
7961;SDS011;4026;43.652;24.906;2022-09-29T13:13:23;1.42;;;1.02;;
7961;SDS011;4026;43.652;24.906;2022-09-29T13:16:04;1.35;;;1.08;;
7961;SDS011;4026;43.652;24.906;2022-09-29T13:21:39;0.93;;;0.82;;
7961;SDS011;4026;43.652;24.906;2022-09-29T13:24:27;1.00;;;0.90;;
7961;SDS011;4026;43.652;24.906;2022-09-29T13:27:06;0.82;;;0.82;;
7961;SDS011;4026;43.652;24.906;2022-09-29T13:29:47;1.10;;;1.00;;
7961;SDS011;4026;43.652;24.906;2022-09-29T13:32:17;0.60;;;0.60;;
7961;SDS011;4026;43.652;24.906;2022-09-29T13:34:47;1.00;;;0.90;;
7961;SDS011;4026;43.652;24.906;2022-09-29T13:37:20;0.90;;;0.75;;
7961;SDS011;4026;43.652;24.906;2022-09-29T13:39:51;0.85;;;0.85;;
7961;SDS011;4026;43.652;24.906;2022-09-29T13:42:36;1.40;;;0.82;;
7961;SDS011;4026;43.652;24.906;2022-09-29T13:57:19;1.05;;;0.88;;
7961;SDS011;4026;43.652;24.906;2022-09-29T14:02:59;0.80;;;0.80;;
7961;SDS011;4026;43.652;24.906;2022-09-29T14:05:35;0.82;;;0.80;;
7961;SDS011;4026;43.652;24.906;2022-09-29T14:08:21;1.05;;;0.73;;
7961;SDS011;4026;43.652;24.906;2022-09-29T14:10:57;0.70;;;0.70;;
7961;SDS011;4026;43.652;24.906;2022-09-29T14:13:42;0.73;;;0.70;;
7961;SDS011;4026;43.652;24.906;2022-09-29T14:19:15;0.60;;;0.60;;
7961;SDS011;4026;43.652;24.906;2022-09-29T14:22:01;1.00;;;0.73;;
7961;SDS011;4026;43.652;24.906;2022-09-29T14:24:43;0.60;;;0.60;;
7961;SDS011;4026;43.652;24.906;2022-09-29T14:27:24;0.50;;;0.50;;
7961;SDS011;4026;43.652;24.906;2022-09-29T14:29:57;0.55;;;0.55;;
7961;SDS011;4026;43.652;24.906;2022-09-29T14:32:38;0.70;;;0.70;;
7961;SDS011;4026;43.652;24.906;2022-09-29T14:35:13;1.85;;;1.10;;
7961;SDS011;4026;43.652;24.906;2022-09-29T14:37:43;1.23;;;1.10;;
7961;SDS011;4026;43.652;24.906;2022-09-29T14:40:14;1.30;;;1.20;;
7961;SDS011;4026;43.652;24.906;2022-09-29T14:43:13;2.92;;;0.80;;
7961;SDS011;4026;43.652;24.906;2022-09-29T14:45:54;1.10;;;1.00;;
7961;SDS011;4026;43.652;24.906;2022-09-29T14:49:00;1.58;;;1.20;;
7961;SDS011;4026;43.652;24.906;2022-09-29T14:51:56;2.22;;;0.95;;
7961;SDS011;4026;43.652;24.906;2022-09-29T14:54:36;0.82;;;0.73;;
7961;SDS011;4026;43.652;24.906;2022-09-29T14:57:18;0.70;;;0.70;;
7961;SDS011;4026;43.652;24.906;2022-09-29T15:00:02;2.60;;;0.50;;
7961;SDS011;4026;43.652;24.906;2022-09-29T15:02:32;0.60;;;0.60;;
7961;SDS011;4026;43.652;24.906;2022-09-29T15:05:10;1.17;;;0.80;;
7961;SDS011;4026;43.652;24.906;2022-09-29T15:07:39;0.45;;;0.45;;
7961;SDS011;4026;43.652;24.906;2022-09-29T15:10:18;0.80;;;0.70;;
7961;SDS011;4026;43.652;24.906;2022-09-29T15:12:47;0.77;;;0.65;;
7961;SDS011;4026;43.652;24.906;2022-09-29T15:18:04;2.80;;;1.00;;
7961;SDS011;4026;43.652;24.906;2022-09-29T15:20:43;0.43;;;0.43;;
7961;SDS011;4026;43.652;24.906;2022-09-29T15:23:28;0.80;;;0.80;;
7961;SDS011;4026;43.652;24.906;2022-09-29T15:26:07;1.02;;;0.70;;
7961;SDS011;4026;43.652;24.906;2022-09-29T15:28:38;0.77;;;0.68;;
7961;SDS011;4026;43.652;24.906;2022-09-29T15:31:09;0.43;;;0.43;;
7961;SDS011;4026;43.652;24.906;2022-09-29T15:33:38;1.10;;;0.95;;
7961;SDS011;4026;43.652;24.906;2022-09-29T15:36:07;0.60;;;0.60;;
7961;SDS011;4026;43.652;24.906;2022-09-29T15:38:42;0.70;;;0.70;;
7961;SDS011;4026;43.652;24.906;2022-09-29T15:41:15;0.60;;;0.60;;
7961;SDS011;4026;43.652;24.906;2022-09-29T15:43:50;0.93;;;0.75;;
7961;SDS011;4026;43.652;24.906;2022-09-29T15:46:21;0.88;;;0.88;;
7961;SDS011;4026;43.652;24.906;2022-09-29T15:51:45;1.88;;;0.60;;
7961;SDS011;4026;43.652;24.906;2022-09-29T15:54:22;0.60;;;0.60;;
7961;SDS011;4026;43.652;24.906;2022-09-29T15:56:50;0.77;;;0.70;;
7961;SDS011;4026;43.652;24.906;2022-09-29T15:59:38;0.60;;;0.50;;
7961;SDS011;4026;43.652;24.906;2022-09-29T16:02:12;0.95;;;0.85;;
7961;SDS011;4026;43.652;24.906;2022-09-29T16:04:43;0.60;;;0.55;;
7961;SDS011;4026;43.652;24.906;2022-09-29T16:07:19;0.57;;;0.57;;
7961;SDS011;4026;43.652;24.906;2022-09-29T16:09:52;0.50;;;0.50;;
7961;SDS011;4026;43.652;24.906;2022-09-29T16:12:25;0.68;;;0.68;;
7961;SDS011;4026;43.652;24.906;2022-09-29T16:14:52;0.53;;;0.53;;
7961;SDS011;4026;43.652;24.906;2022-09-29T16:17:24;0.60;;;0.60;;